Time;durP1;ratioP1;P1;durP2;ratioP2;P2;SDS_P1;SDS_P2;PMS_P1;PMS_P2;Temp;Humidity;BMP_temperature;BMP_pressure;BME280_temperature;BME280_humidity;BME280_pressure;Samples;Min_cycle;Max_cycle;Signal;HPM_P1;HPM_P2
2024/01/17 00:00:58;;;;;;;16.20;9.63;;;0.10;99.90;;;;;;5053618;28;20291;-78
2024/01/17 00:03:27;;;;;;;13.80;9.10;;;0.10;99.90;;;;;;5045226;28;20197;-79
2024/01/17 00:05:56;;;;;;;9.88;7.75;;;0.00;99.90;;;;;;5039853;28;20691;-76
2024/01/17 00:08:24;;;;;;;10.18;8.75;;;0.00;99.90;;;;;;5038115;28;20205;-77
2024/01/17 00:10:53;;;;;;;9.80;8.70;;;0.10;99.90;;;;;;5036815;28;20208;-76
2024/01/17 00:13:21;;;;;;;13.75;8.60;;;0.10;99.90;;;;;;5039299;28;20228;-77
2024/01/17 00:15:49;;;;;;;13.32;9.45;;;0.00;99.90;;;;;;5038186;28;20313;-77
2024/01/17 00:18:17;;;;;;;14.00;10.10;;;0.00;99.90;;;;;;5037813;28;20562;-78
2024/01/17 00:20:46;;;;;;;15.05;8.80;;;0.00;99.90;;;;;;5044258;28;21417;-76
2024/01/17 00:23:15;;;;;;;11.00;9.15;;;-0.10;99.90;;;;;;5046155;28;20206;-78
2024/01/17 00:25:44;;;;;;;11.93;9.07;;;-0.10;99.90;;;;;;5054145;28;20247;-79
2024/01/17 00:28:12;;;;;;;11.02;8.43;;;-0.10;99.90;;;;;;5055145;28;20203;-77
2024/01/17 00:30:40;;;;;;;15.10;9.00;;;0.10;99.90;;;;;;5055087;28;20212;-78
2024/01/17 00:33:08;;;;;;;13.15;8.85;;;0.10;99.90;;;;;;5058814;28;20195;-79
2024/01/17 00:35:37;;;;;;;14.52;9.30;;;0.10;99.90;;;;;;5051486;28;20219;-80
2024/01/17 00:38:05;;;;;;;17.40;8.07;;;0.10;99.90;;;;;;5054579;28;20203;-79
2024/01/17 00:40:35;;;;;;;10.57;8.10;;;0.10;99.90;;;;;;5051287;28;20198;-77
2024/01/17 00:43:03;;;;;;;14.60;8.85;;;0.00;99.90;;;;;;5042641;28;20201;-76
2024/01/17 00:45:31;;;;;;;9.07;7.68;;;0.00;99.90;;;;;;5049999;28;20230;-76
2024/01/17 00:47:59;;;;;;;12.02;7.97;;;-0.10;99.90;;;;;;5049732;28;20197;-79
2024/01/17 00:50:28;;;;;;;11.35;8.20;;;-0.10;99.90;;;;;;5050086;28;20220;-76
2024/01/17 00:52:56;;;;;;;10.38;7.82;;;0.00;99.90;;;;;;5050558;28;20276;-77
2024/01/17 00:55:24;;;;;;;9.02;7.38;;;0.10;99.90;;;;;;5052826;28;20343;-76
2024/01/17 00:57:54;;;;;;;9.20;7.93;;;0.00;99.90;;;;;;5047774;28;21584;-79
2024/01/17 01:00:22;;;;;;;13.82;8.98;;;0.00;99.90;;;;;;5048189;28;20222;-78
2024/01/17 01:02:52;;;;;;;13.88;8.05;;;0.10;99.90;;;;;;5051150;28;20197;-78
2024/01/17 01:05:20;;;;;;;11.20;8.60;;;0.20;99.90;;;;;;5052353;28;20735;-78
2024/01/17 01:07:50;;;;;;;13.55;8.80;;;0.20;99.90;;;;;;5053859;28;20839;-80
2024/01/17 01:10:18;;;;;;;9.77;8.30;;;0.40;99.90;;;;;;5042945;28;20215;-78
2024/01/17 01:12:47;;;;;;;12.93;9.77;;;0.50;99.90;;;;;;5049032;28;20221;-80
2024/01/17 01:15:16;;;;;;;14.38;9.50;;;0.40;99.90;;;;;;5051106;28;20953;-78
2024/01/17 01:17:44;;;;;;;12.25;9.05;;;0.40;99.90;;;;;;5050750;28;20213;-78
2024/01/17 01:20:13;;;;;;;11.27;9.02;;;0.30;99.90;;;;;;5053238;28;20233;-78
2024/01/17 01:22:41;;;;;;;12.02;8.68;;;0.40;99.90;;;;;;5049591;28;20202;-79
2024/01/17 01:25:10;;;;;;;9.55;7.68;;;0.40;99.90;;;;;;5052260;28;20224;-80
2024/01/17 01:27:38;;;;;;;10.30;7.78;;;0.30;99.90;;;;;;5050390;28;20308;-80
2024/01/17 01:30:07;;;;;;;12.68;8.50;;;0.20;99.90;;;;;;5050868;28;20210;-78
2024/01/17 01:32:37;;;;;;;12.52;8.70;;;0.20;99.90;;;;;;5048351;28;20757;-79
2024/01/17 01:35:05;;;;;;;11.35;7.60;;;0.40;99.90;;;;;;5048761;28;20205;-78
2024/01/17 01:37:33;;;;;;;8.88;7.72;;;0.40;99.90;;;;;;5047650;28;20190;-78
2024/01/17 01:40:01;;;;;;;13.43;8.63;;;0.30;99.90;;;;;;5050466;28;20204;-78
2024/01/17 01:42:30;;;;;;;11.98;8.05;;;0.20;99.90;;;;;;5051282;28;20243;-78
2024/01/17 01:44:58;;;;;;;8.95;7.45;;;0.20;99.90;;;;;;5047644;28;20252;-78
2024/01/17 01:47:27;;;;;;;9.52;7.20;;;0.30;99.90;;;;;;5043227;28;20742;-78
2024/01/17 01:49:57;;;;;;;8.68;7.63;;;0.40;99.90;;;;;;5050809;28;20194;-78
2024/01/17 01:52:27;;;;;;;8.25;7.38;;;0.50;99.90;;;;;;5051005;28;20205;-78
2024/01/17 01:54:56;;;;;;;9.27;8.35;;;0.60;99.90;;;;;;5045410;28;20237;-78
2024/01/17 01:57:24;;;;;;;7.95;7.07;;;0.50;99.90;;;;;;5050609;28;20200;-78
2024/01/17 01:59:53;;;;;;;14.00;7.97;;;0.50;99.90;;;;;;5043240;28;20221;-77
2024/01/17 02:02:21;;;;;;;11.30;7.82;;;0.60;99.90;;;;;;5047677;28;20196;-79
2024/01/17 02:04:49;;;;;;;7.50;6.68;;;0.60;99.90;;;;;;5050839;28;20666;-80
2024/01/17 02:07:22;;;;;;;9.15;7.60;;;0.60;99.90;;;;;;5048774;28;20724;-78
2024/01/17 02:09:50;;;;;;;10.10;7.35;;;0.60;99.90;;;;;;5047344;28;20200;-78
2024/01/17 02:12:19;;;;;;;10.02;7.60;;;0.60;99.90;;;;;;5051210;28;20196;-78
2024/01/17 02:14:47;;;;;;;9.55;7.10;;;0.70;99.90;;;;;;5043908;28;20197;-78
2024/01/17 02:17:15;;;;;;;11.85;8.18;;;0.70;99.90;;;;;;5045621;28;20229;-79
2024/01/17 02:19:44;;;;;;;9.38;7.07;;;0.70;99.90;;;;;;5047717;28;20279;-76
2024/01/17 02:22:12;;;;;;;9.20;7.10;;;0.70;99.90;;;;;;5046152;28;20227;-77
2024/01/17 02:24:41;;;;;;;8.82;7.18;;;0.80;99.90;;;;;;5051161;28;20201;-80
2024/01/17 02:27:10;;;;;;;8.70;7.45;;;0.90;99.90;;;;;;5049230;28;20251;-78
2024/01/17 02:29:38;;;;;;;9.15;7.47;;;0.90;99.90;;;;;;5052770;28;20193;-81
2024/01/17 02:32:07;;;;;;;8.23;6.93;;;1.00;99.90;;;;;;5045387;28;20232;-80
2024/01/17 02:34:35;;;;;;;9.98;7.97;;;0.80;99.90;;;;;;5048529;28;20205;-80
2024/01/17 02:37:04;;;;;;;8.05;7.25;;;0.80;99.90;;;;;;5049372;28;22293;-79
2024/01/17 02:39:32;;;;;;;10.07;7.28;;;0.90;99.90;;;;;;5048249;28;20213;-79
2024/01/17 02:42:02;;;;;;;10.60;7.47;;;0.80;99.90;;;;;;5050916;28;20207;-80
2024/01/17 02:44:30;;;;;;;8.38;7.53;;;0.80;99.90;;;;;;5052885;28;20209;-78
2024/01/17 02:46:59;;;;;;;8.82;7.68;;;0.90;99.90;;;;;;5048161;28;20292;-79
2024/01/17 02:49:27;;;;;;;10.68;8.70;;;0.90;99.90;;;;;;5048098;28;20197;-79
2024/01/17 02:51:55;;;;;;;8.55;7.60;;;0.90;99.90;;;;;;5048532;28;20325;-78
2024/01/17 02:54:24;;;;;;;15.63;8.45;;;0.90;99.90;;;;;;5046948;28;20202;-77
2024/01/17 02:56:52;;;;;;;8.85;7.63;;;0.90;99.90;;;;;;5050309;28;20206;-77
2024/01/17 02:59:21;;;;;;;9.43;7.47;;;0.80;1.00;;;;;;5046974;28;20202;-79
2024/01/17 03:01:50;;;;;;;10.55;7.70;;;0.80;1.00;;;;;;5044353;28;20194;-77
2024/01/17 03:04:19;;;;;;;10.93;7.80;;;0.80;1.00;;;;;;5049391;28;20284;-78
2024/01/17 03:06:50;;;;;;;11.77;7.47;;;0.80;21.90;;;;;;5044001;28;20699;-78
2024/01/17 03:09:18;;;;;;;8.60;7.63;;;0.90;66.40;;;;;;5047889;28;20197;-79
2024/01/17 03:11:47;;;;;;;16.70;8.07;;;1.00;18.40;;;;;;5045715;28;20200;-78
2024/01/17 03:14:15;;;;;;;12.38;8.32;;;1.00;21.10;;;;;;5043888;28;20203;-76
2024/01/17 03:16:45;;;;;;;10.38;7.35;;;1.10;33.90;;;;;;5049348;28;20872;-79
2024/01/17 03:19:15;;;;;;;8.00;6.65;;;1.10;47.30;;;;;;5046940;28;20220;-77
2024/01/17 03:21:49;;;;;;;13.32;8.43;;;1.10;75.00;;;;;;5051479;28;20196;-78
2024/01/17 03:24:17;;;;;;;12.60;8.98;;;1.10;48.60;;;;;;5052306;28;20192;-79
2024/01/17 03:26:45;;;;;;;9.95;8.45;;;1.10;14.90;;;;;;5049108;28;20232;-79
2024/01/17 03:29:13;;;;;;;16.35;9.88;;;1.00;1.00;;;;;;5051650;28;20214;-76
2024/01/17 03:31:41;;;;;;;11.82;9.43;;;1.00;1.00;;;;;;5052232;28;20290;-79
2024/01/17 03:34:11;;;;;;;14.18;10.02;;;1.00;1.00;;;;;;5049674;28;20205;-79
2024/01/17 03:36:39;;;;;;;14.27;10.45;;;1.00;1.00;;;;;;5051749;28;20222;-78
2024/01/17 03:39:07;;;;;;;11.75;10.52;;;1.00;1.00;;;;;;5052050;28;20292;-78
2024/01/17 03:41:36;;;;;;;15.23;10.73;;;1.00;1.00;;;;;;5049685;28;20197;-79
2024/01/17 03:44:04;;;;;;;11.57;10.25;;;0.90;1.00;;;;;;5051066;28;20197;-77
2024/01/17 03:46:32;;;;;;;13.23;11.82;;;1.00;1.00;;;;;;5051732;28;20309;-79
2024/01/17 03:49:00;;;;;;;13.93;10.10;;;0.90;1.00;;;;;;5046613;28;20300;-79
2024/01/17 03:51:30;;;;;;;12.20;10.07;;;0.90;1.00;;;;;;5050098;28;20204;-79
2024/01/17 03:53:58;;;;;;;14.93;11.00;;;0.80;1.00;;;;;;5046367;28;20292;-80
2024/01/17 03:56:26;;;;;;;13.00;10.23;;;0.80;1.00;;;;;;5046234;28;20217;-79
2024/01/17 03:58:55;;;;;;;14.45;10.90;;;0.90;45.20;;;;;;5051837;28;20193;-79
2024/01/17 04:01:23;;;;;;;11.88;10.10;;;0.90;47.70;;;;;;5045421;28;20213;-77
2024/01/17 04:03:52;;;;;;;14.32;10.45;;;0.90;99.90;;;;;;5043081;28;20222;-78
2024/01/17 04:06:20;;;;;;;16.58;11.98;;;0.90;99.90;;;;;;5047611;28;20209;-79
2024/01/17 04:08:50;;;;;;;13.05;10.27;;;0.90;99.90;;;;;;5048957;28;20232;-78
2024/01/17 04:11:18;;;;;;;11.48;10.07;;;0.90;99.90;;;;;;5046179;28;20251;-78
2024/01/17 04:13:46;;;;;;;10.95;9.85;;;0.90;99.90;;;;;;5051018;28;20204;-76
2024/01/17 04:16:15;;;;;;;13.68;10.75;;;1.00;99.90;;;;;;5050635;28;20840;-79
2024/01/17 04:18:43;;;;;;;12.55;10.57;;;1.00;99.90;;;;;;5052258;28;20224;-77
2024/01/17 04:21:18;;;;;;;9.63;8.40;;;1.10;99.90;;;;;;5046865;28;20202;-76
2024/01/17 04:23:47;;;;;;;8.85;8.00;;;1.10;99.90;;;;;;5050911;28;20196;-77
2024/01/17 04:26:23;;;;;;;12.25;9.10;;;1.20;1.00;;;;;;5044793;28;20221;-79
2024/01/17 04:28:52;;;;;;;11.13;8.30;;;1.20;1.00;;;;;;5048730;28;21189;-79
2024/01/17 04:31:24;;;;;;;12.95;9.43;;;1.20;1.00;;;;;;5045470;28;20574;-77
2024/01/17 04:33:53;;;;;;;12.40;9.60;;;1.30;95.60;;;;;;5048968;28;20206;-76
2024/01/17 04:36:22;;;;;;;14.20;9.40;;;1.40;1.00;;;;;;5049664;28;20229;-77
2024/01/17 04:38:50;;;;;;;11.88;8.82;;;1.40;1.00;;;;;;5050873;28;20193;-76
2024/01/17 04:41:19;;;;;;;10.00;9.10;;;1.40;1.00;;;;;;5054813;28;20220;-76
2024/01/17 04:43:48;;;;;;;9.70;8.27;;;1.30;28.20;;;;;;5052407;28;20200;-77
2024/01/17 04:46:17;;;;;;;12.02;9.45;;;1.40;99.90;;;;;;5049719;28;20223;-79
2024/01/17 04:48:46;;;;;;;11.25;10.10;;;1.40;99.90;;;;;;5047683;28;20364;-79
2024/01/17 04:51:15;;;;;;;9.60;8.55;;;1.40;99.90;;;;;;5048214;28;20843;-77
2024/01/17 04:53:44;;;;;;;9.88;8.38;;;1.40;1.00;;;;;;5048199;28;20210;-78
2024/01/17 04:56:13;;;;;;;12.50;9.35;;;1.50;1.00;;;;;;5046506;28;20257;-77
2024/01/17 04:58:41;;;;;;;10.97;7.87;;;1.50;1.00;;;;;;5041658;28;20421;-78
2024/01/17 05:01:11;;;;;;;10.32;7.95;;;1.50;1.00;;;;;;5043741;28;20469;-78
2024/01/17 05:03:42;;;;;;;10.48;8.15;;;1.60;1.00;;;;;;5046092;28;20201;-74
2024/01/17 05:06:11;;;;;;;9.23;8.07;;;1.60;1.00;;;;;;5043155;28;20238;-74
2024/01/17 05:08:39;;;;;;;9.40;7.80;;;1.60;1.00;;;;;;5042221;28;20220;-77
2024/01/17 05:11:07;;;;;;;11.90;9.90;;;1.60;47.80;;;;;;5038364;28;20190;-77
2024/01/17 05:13:35;;;;;;;9.02;8.15;;;1.60;99.90;;;;;;5046486;28;20277;-76
2024/01/17 05:16:04;;;;;;;11.25;9.63;;;1.60;99.90;;;;;;5045624;28;20209;-78
2024/01/17 05:18:33;;;;;;;14.35;10.15;;;1.70;99.90;;;;;;5045629;28;20195;-77
2024/01/17 05:21:02;;;;;;;14.00;10.63;;;1.70;99.90;;;;;;5037582;28;20197;-76
2024/01/17 05:23:30;;;;;;;13.07;9.60;;;1.70;99.90;;;;;;5045267;28;20208;-79
2024/01/17 05:25:58;;;;;;;9.30;8.10;;;1.80;99.90;;;;;;5039558;28;20225;-77
2024/01/17 05:28:27;;;;;;;10.23;8.80;;;1.80;99.90;;;;;;5036306;28;20745;-77
2024/01/17 05:30:56;;;;;;;11.05;9.77;;;1.80;99.90;;;;;;5040948;28;20689;-76
2024/01/17 05:33:24;;;;;;;11.85;9.07;;;1.90;99.90;;;;;;5032498;28;21740;-76
2024/01/17 05:35:54;;;;;;;10.85;9.75;;;1.90;99.90;;;;;;5037859;28;20448;-77
2024/01/17 05:38:22;;;;;;;12.77;10.40;;;1.90;99.90;;;;;;5034899;28;20201;-78
2024/01/17 05:40:50;;;;;;;13.48;10.40;;;1.90;99.90;;;;;;5040470;28;20201;-77
2024/01/17 05:43:19;;;;;;;11.80;9.30;;;1.90;99.90;;;;;;5046574;28;20209;-77
2024/01/17 05:45:47;;;;;;;13.88;11.40;;;2.00;99.90;;;;;;5041538;28;20219;-78
2024/01/17 05:48:15;;;;;;;10.95;9.20;;;2.00;99.90;;;;;;5047059;28;20217;-78
2024/01/17 05:50:44;;;;;;;14.73;10.82;;;2.00;99.90;;;;;;5047965;28;20202;-77
2024/01/17 05:53:14;;;;;;;10.73;9.55;;;2.00;99.90;;;;;;5048959;28;20293;-78
2024/01/17 05:55:42;;;;;;;11.85;10.18;;;2.10;99.90;;;;;;5044187;28;20240;-76
2024/01/17 05:58:10;;;;;;;14.70;9.27;;;2.00;33.00;;;;;;5039645;28;20198;-76
2024/01/17 06:00:40;;;;;;;11.75;10.32;;;2.00;99.90;;;;;;5042898;28;20197;-76
2024/01/17 06:03:08;;;;;;;13.55;10.10;;;2.10;99.90;;;;;;5042621;28;20201;-79
2024/01/17 06:05:36;;;;;;;12.90;10.88;;;2.00;99.90;;;;;;5047667;28;20221;-77
2024/01/17 06:08:06;;;;;;;11.95;10.70;;;2.00;99.90;;;;;;5042664;28;20205;-76
2024/01/17 06:10:37;;;;;;;12.95;11.30;;;1.90;1.00;;;;;;5042424;28;20271;-78
2024/01/17 06:13:08;;;;;;;11.25;10.15;;;2.00;1.00;;;;;;5037617;28;20247;-75
2024/01/17 06:15:36;;;;;;;10.57;9.43;;;2.00;1.00;;;;;;5039585;28;20236;-76
2024/01/17 06:18:05;;;;;;;14.43;10.75;;;2.00;1.00;;;;;;5033858;28;20296;-78
2024/01/17 06:20:33;;;;;;;13.18;11.43;;;2.00;1.00;;;;;;5036225;28;20212;-76
2024/01/17 06:23:02;;;;;;;11.27;10.18;;;2.00;1.00;;;;;;5049228;28;20263;-77
2024/01/17 06:25:30;;;;;;;14.30;9.93;;;2.00;7.20;;;;;;5047943;28;20214;-74
2024/01/17 06:27:59;;;;;;;15.75;13.18;;;2.00;1.00;;;;;;5053899;28;20206;-75
2024/01/17 06:30:27;;;;;;;13.10;9.13;;;2.00;98.10;;;;;;5042168;28;20213;-77
2024/01/17 06:32:56;;;;;;;17.90;12.02;;;2.10;1.00;;;;;;5044723;28;20200;-75
2024/01/17 06:35:24;;;;;;;18.05;12.70;;;2.10;1.00;;;;;;5054238;28;20221;-75
2024/01/17 06:37:52;;;;;;;15.25;11.93;;;2.10;99.90;;;;;;5052090;28;20292;-77
2024/01/17 06:40:20;;;;;;;14.77;11.45;;;2.10;99.90;;;;;;5053017;28;20198;-76
2024/01/17 06:42:48;;;;;;;13.85;12.18;;;2.10;99.90;;;;;;5047247;28;20202;-75
2024/01/17 06:45:18;;;;;;;17.58;13.20;;;2.10;99.90;;;;;;5048281;28;20296;-76
2024/01/17 06:47:47;;;;;;;19.80;13.57;;;2.20;1.00;;;;;;5039857;28;20260;-77
2024/01/17 06:50:15;;;;;;;14.25;11.38;;;2.30;1.00;;;;;;5050572;28;20232;-76
2024/01/17 06:52:43;;;;;;;13.90;10.88;;;2.30;20.00;;;;;;5041797;28;20335;-78
2024/01/17 06:55:12;;;;;;;13.27;11.48;;;2.30;1.00;;;;;;5055225;28;20247;-78
2024/01/17 06:57:44;;;;;;;13.77;12.00;;;2.40;35.10;;;;;;5057106;28;20231;-79
2024/01/17 07:00:13;;;;;;;12.15;10.70;;;2.40;99.90;;;;;;5055823;28;20198;-78
2024/01/17 07:02:43;;;;;;;11.95;10.75;;;2.50;1.00;;;;;;5051525;28;20810;-75
2024/01/17 07:05:12;;;;;;;14.55;10.70;;;2.40;99.90;;;;;;5049068;28;20226;-76
2024/01/17 07:07:40;;;;;;;15.10;12.23;;;2.50;99.90;;;;;;5050869;28;20194;-78
2024/01/17 07:10:09;;;;;;;14.52;11.38;;;2.50;1.00;;;;;;5050255;28;20263;-77
2024/01/17 07:12:37;;;;;;;16.27;13.15;;;2.50;99.90;;;;;;5049645;28;20208;-78
2024/01/17 07:15:06;;;;;;;19.85;13.75;;;2.40;25.60;;;;;;5049426;28;20201;-77
2024/01/17 07:17:35;;;;;;;17.38;12.70;;;2.50;99.90;;;;;;5050255;28;20208;-76
2024/01/17 07:20:06;;;;;;;13.05;11.63;;;2.50;1.00;;;;;;5046830;28;20217;-77
2024/01/17 07:22:35;;;;;;;18.75;14.05;;;2.50;99.90;;;;;;5041984;28;20206;-78
2024/01/17 07:25:04;;;;;;;17.23;13.73;;;2.60;54.00;;;;;;5051509;28;20197;-77
2024/01/17 07:27:32;;;;;;;15.20;12.30;;;2.60;99.90;;;;;;5047194;28;20217;-77
2024/01/17 07:30:01;;;;;;;15.63;12.25;;;2.60;1.00;;;;;;5051970;28;20248;-76
2024/01/17 07:32:30;;;;;;;15.60;11.95;;;2.60;1.00;;;;;;5051967;28;20288;-75
2024/01/17 07:34:58;;;;;;;15.95;11.88;;;2.70;6.90;;;;;;5046983;28;20214;-78
2024/01/17 07:37:28;;;;;;;14.85;12.05;;;2.80;99.90;;;;;;5047224;28;20209;-76
2024/01/17 07:39:56;;;;;;;14.20;12.13;;;2.70;99.90;;;;;;5049254;28;20212;-76
2024/01/17 07:42:25;;;;;;;13.77;12.38;;;2.70;99.90;;;;;;5043660;28;20201;-75
2024/01/17 07:44:57;;;;;;;15.52;12.52;;;2.60;82.70;;;;;;5051868;28;20298;-75
2024/01/17 07:47:25;;;;;;;18.08;12.95;;;2.70;1.00;;;;;;5044240;28;20692;-75
2024/01/17 07:49:55;;;;;;;13.52;10.77;;;2.80;99.90;;;;;;5044110;28;20248;-77
2024/01/17 07:52:23;;;;;;;16.20;12.05;;;2.80;1.00;;;;;;5049261;28;20210;-78
2024/01/17 07:54:53;;;;;;;18.75;13.57;;;2.80;99.90;;;;;;5051156;28;20197;-75
2024/01/17 07:57:22;;;;;;;17.35;13.73;;;2.80;99.90;;;;;;5054574;28;20974;-76
2024/01/17 07:59:50;;;;;;;14.82;13.30;;;2.90;99.90;;;;;;5041947;28;20444;-76
2024/01/17 08:02:19;;;;;;;16.83;14.93;;;2.80;1.50;;;;;;5036824;28;20198;-76
2024/01/17 08:04:49;;;;;;;17.85;14.18;;;2.80;1.00;;;;;;5040440;28;20205;-78
2024/01/17 08:07:17;;;;;;;18.73;13.23;;;2.80;1.00;;;;;;5047751;28;20217;-75
2024/01/17 08:09:46;;;;;;;13.80;11.82;;;2.80;1.00;;;;;;5039292;28;20216;-77
2024/01/17 08:12:16;;;;;;;17.40;12.00;;;2.80;1.00;;;;;;5040134;28;20292;-75
2024/01/17 08:14:45;;;;;;;14.88;12.07;;;2.80;99.90;;;;;;5036199;28;20197;-76
2024/01/17 08:17:13;;;;;;;13.52;11.98;;;2.80;99.90;;;;;;5034944;28;20340;-77
2024/01/17 08:19:42;;;;;;;14.35;12.18;;;2.80;1.00;;;;;;5042642;28;20679;-76
2024/01/17 08:22:11;;;;;;;14.50;12.68;;;2.80;1.00;;;;;;5054674;28;20194;-75
2024/01/17 08:24:42;;;;;;;13.93;11.55;;;2.80;1.00;;;;;;5045834;28;20268;-76
2024/01/17 08:27:11;;;;;;;14.35;12.90;;;2.90;18.40;;;;;;5050142;28;20229;-77
2024/01/17 08:29:44;;;;;;;14.10;11.60;;;2.90;59.50;;;;;;5045739;28;20197;-77
2024/01/17 08:32:13;;;;;;;13.80;12.00;;;2.90;61.40;;;;;;5043420;28;20212;-76
2024/01/17 08:34:42;;;;;;;14.73;13.25;;;3.00;99.90;;;;;;5051975;28;20204;-77
2024/01/17 08:37:11;;;;;;;17.85;14.85;;;3.00;19.00;;;;;;5049527;28;20240;-76
2024/01/17 08:39:43;;;;;;;15.57;12.55;;;3.10;1.00;;;;;;5057622;28;20726;-76
2024/01/17 08:42:12;;;;;;;15.60;13.85;;;3.10;1.00;;;;;;5047006;28;20205;-76
2024/01/17 08:44:42;;;;;;;14.70;13.25;;;3.10;99.90;;;;;;5047364;28;21194;-75
2024/01/17 08:47:11;;;;;;;13.02;11.65;;;3.10;99.90;;;;;;5039875;28;20751;-78
2024/01/17 08:49:40;;;;;;;14.65;12.25;;;3.20;99.90;;;;;;5045998;28;20193;-75
2024/01/17 08:52:09;;;;;;;12.60;10.52;;;3.20;99.90;;;;;;5053912;28;20315;-77
2024/01/17 08:54:37;;;;;;;12.65;11.45;;;3.20;99.90;;;;;;5052171;28;20202;-77
2024/01/17 08:57:05;;;;;;;12.48;11.25;;;3.30;99.90;;;;;;5056411;28;20217;-76
2024/01/17 08:59:36;;;;;;;14.73;11.88;;;3.30;99.90;;;;;;5055403;28;20197;-75
2024/01/17 09:02:05;;;;;;;13.50;12.20;;;3.30;99.90;;;;;;5043063;28;20286;-77
2024/01/17 09:04:34;;;;;;;15.82;12.93;;;3.30;99.90;;;;;;5043855;28;20270;-78
2024/01/17 09:07:03;;;;;;;18.83;13.80;;;3.30;99.90;;;;;;5051453;28;20228;-76
2024/01/17 09:09:32;;;;;;;17.30;12.73;;;3.30;99.90;;;;;;5051917;28;20623;-77
2024/01/17 09:12:01;;;;;;;12.80;11.55;;;3.40;99.90;;;;;;5052846;28;20217;-76
2024/01/17 09:14:30;;;;;;;11.43;9.95;;;3.40;99.90;;;;;;5053776;28;20685;-75
2024/01/17 09:16:58;;;;;;;12.55;11.00;;;3.40;99.90;;;;;;5046449;28;20216;-76
2024/01/17 09:19:28;;;;;;;14.02;11.75;;;3.40;99.90;;;;;;5049637;28;20678;-76
2024/01/17 09:22:00;;;;;;;13.00;11.68;;;3.40;99.90;;;;;;5053558;28;20288;-78
2024/01/17 09:24:30;;;;;;;11.87;10.87;;;3.40;99.90;;;;;;5055355;28;20204;-78
2024/01/17 09:26:58;;;;;;;13.30;10.73;;;3.50;99.90;;;;;;5043107;28;20484;-76
2024/01/17 09:29:29;;;;;;;12.00;10.70;;;3.50;99.90;;;;;;5048366;28;20197;-77
2024/01/17 09:31:58;;;;;;;13.10;11.70;;;3.50;99.90;;;;;;5042213;28;20232;-77
2024/01/17 09:34:28;;;;;;;11.97;10.87;;;3.50;99.90;;;;;;5051859;28;20194;-77
2024/01/17 09:36:57;;;;;;;11.93;10.80;;;3.50;99.90;;;;;;5044515;28;20503;-77
2024/01/17 09:39:25;;;;;;;11.50;10.55;;;3.50;99.90;;;;;;5054210;28;20467;-76
2024/01/17 09:41:54;;;;;;;14.35;12.98;;;3.60;99.90;;;;;;5046847;28;20240;-77
2024/01/17 09:44:23;;;;;;;14.20;11.77;;;3.70;99.90;;;;;;5052373;28;20202;-77
2024/01/17 09:46:52;;;;;;;13.50;12.30;;;3.60;99.90;;;;;;5047142;28;20245;-75
2024/01/17 09:49:21;;;;;;;13.80;12.38;;;3.70;99.90;;;;;;5049419;28;20196;-76
2024/01/17 09:51:52;;;;;;;12.50;11.30;;;3.70;99.90;;;;;;5041985;28;20232;-76
2024/01/17 09:54:25;;;;;;;10.30;9.45;;;3.70;99.90;;;;;;5048091;28;20269;-77
2024/01/17 09:56:57;;;;;;;12.27;11.35;;;3.70;99.90;;;;;;5042992;28;20225;-76
2024/01/17 09:59:28;;;;;;;12.85;11.75;;;3.70;99.90;;;;;;5053472;28;20209;-78
2024/01/17 10:01:56;;;;;;;13.05;11.90;;;3.70;1.00;;;;;;5045378;28;20203;-78
2024/01/17 10:04:25;;;;;;;10.65;9.75;;;3.80;99.90;;;;;;5049443;28;20682;-78
2024/01/17 10:06:56;;;;;;;11.10;10.30;;;3.70;99.90;;;;;;5054670;28;20213;-75
2024/01/17 10:09:25;;;;;;;11.57;10.55;;;3.80;99.90;;;;;;5054773;28;20206;-78
2024/01/17 10:11:53;;;;;;;12.30;11.05;;;3.80;99.90;;;;;;5051138;28;20218;-76
2024/01/17 10:14:24;;;;;;;13.55;12.40;;;3.70;99.90;;;;;;5046156;28;20203;-76
2024/01/17 10:16:52;;;;;;;13.18;12.15;;;3.80;99.90;;;;;;5049372;28;20226;-75
2024/01/17 10:19:24;;;;;;;12.85;11.65;;;3.80;99.90;;;;;;5051656;28;20208;-75
2024/01/17 10:21:55;;;;;;;12.80;11.70;;;3.70;99.90;;;;;;5052859;28;20254;-77
2024/01/17 10:24:24;;;;;;;13.60;12.20;;;3.80;99.90;;;;;;5052033;28;20212;-76
2024/01/17 10:26:52;;;;;;;13.02;11.82;;;3.70;99.90;;;;;;5055417;28;20730;-76
2024/01/17 10:29:21;;;;;;;13.70;12.30;;;3.80;99.90;;;;;;5044879;28;20202;-77
2024/01/17 10:31:49;;;;;;;11.98;10.98;;;3.80;99.90;;;;;;5051763;28;20736;-75
2024/01/17 10:34:18;;;;;;;12.00;11.10;;;3.80;99.90;;;;;;5056573;28;20189;-78
2024/01/17 10:36:47;;;;;;;13.15;12.05;;;3.80;99.90;;;;;;5054798;28;20732;-77
2024/01/17 10:39:22;;;;;;;13.88;12.68;;;3.90;1.00;;;;;;5057620;28;20190;-76
2024/01/17 10:41:51;;;;;;;15.30;13.05;;;3.80;1.00;;;;;;5047683;28;20184;-76
2024/01/17 10:44:20;;;;;;;16.13;14.20;;;3.90;1.00;;;;;;5057000;28;20671;-76
2024/01/17 10:46:50;;;;;;;11.75;10.75;;;3.90;1.00;;;;;;5050708;28;20488;-75
2024/01/17 10:49:19;;;;;;;12.73;11.63;;;3.90;1.00;;;;;;5049456;28;20289;-77
2024/01/17 10:51:54;;;;;;;12.05;11.05;;;3.90;1.00;;;;;;5055761;28;20546;-77
2024/01/17 10:54:27;;;;;;;14.65;13.07;;;4.00;1.00;;;;;;5050085;28;20205;-77
2024/01/17 10:56:56;;;;;;;14.23;12.77;;;4.00;99.90;;;;;;5048187;28;20316;-77
2024/01/17 10:59:27;;;;;;;12.85;11.65;;;4.00;1.00;;;;;;5056051;28;20232;-76
2024/01/17 11:01:56;;;;;;;11.85;10.85;;;4.00;1.00;;;;;;5053550;28;20288;-76
2024/01/17 11:04:30;;;;;;;10.10;9.40;;;4.00;1.00;;;;;;5051706;28;20201;-76
2024/01/17 11:07:01;;;;;;;12.00;10.97;;;4.10;1.00;;;;;;5055869;28;20221;-75
2024/01/17 11:09:31;;;;;;;10.63;9.82;;;4.10;1.00;;;;;;5056830;28;20546;-76
2024/01/17 11:12:02;;;;;;;11.65;10.75;;;4.10;1.00;;;;;;5053450;28;20217;-75
2024/01/17 11:14:31;;;;;;;10.63;9.93;;;4.20;1.00;;;;;;5052577;28;20204;-76
2024/01/17 11:17:03;;;;;;;10.63;9.93;;;4.20;1.00;;;;;;5047691;28;20486;-76
2024/01/17 11:19:34;;;;;;;10.00;9.20;;;4.20;1.00;;;;;;5047609;28;20465;-77
2024/01/17 11:22:03;;;;;;;10.17;9.47;;;4.20;1.00;;;;;;5048838;28;20194;-76
2024/01/17 11:24:40;;;;;;;10.65;9.75;;;4.20;1.00;;;;;;5042077;28;20447;-77
2024/01/17 11:27:17;;;;;;;10.18;9.55;;;4.30;1.00;;;;;;5038917;28;20255;-75
2024/01/17 11:29:58;;;;;;;10.25;9.65;;;4.30;1.00;;;;;;5039598;28;20573;-75
2024/01/17 11:32:42;;;;;;;10.15;9.65;;;4.40;1.00;;;;;;5036718;28;20213;-78
2024/01/17 11:35:40;;;;;;;9.68;9.13;;;4.30;1.00;;;;;;5040306;28;20205;-77
2024/01/17 11:38:13;;;;;;;8.38;7.88;;;4.40;1.00;;;;;;5047764;28;20266;-76
2024/01/17 11:40:43;;;;;;;9.27;8.77;;;4.50;1.00;;;;;;5044011;28;20196;-78
2024/01/17 11:43:11;;;;;;;8.45;7.93;;;4.50;1.00;;;;;;5043407;28;20443;-78
2024/01/17 11:45:39;;;;;;;8.03;7.70;;;4.60;1.00;;;;;;5043038;28;20221;-76
2024/01/17 11:48:19;;;;;;;8.40;7.83;;;4.60;1.00;;;;;;5040214;28;20490;-77
2024/01/17 11:50:58;;;;;;;7.70;7.40;;;4.60;1.00;;;;;;5042957;28;20460;-76
2024/01/17 11:53:28;;;;;;;8.07;7.77;;;4.60;1.00;;;;;;5052025;28;20248;-77
2024/01/17 11:55:58;;;;;;;8.37;8.00;;;4.60;1.00;;;;;;5043432;28;20472;-76
2024/01/17 11:58:40;;;;;;;7.97;7.77;;;4.70;1.00;;;;;;5041861;28;20440;-77
2024/01/17 12:01:10;;;;;;;8.67;8.40;;;4.70;1.00;;;;;;5051561;28;20530;-75
2024/01/17 12:03:38;;;;;;;8.70;8.40;;;4.70;1.00;;;;;;5048260;28;20485;-77
2024/01/17 12:06:09;;;;;;;9.17;8.87;;;4.80;1.00;;;;;;5038573;28;20467;-77
2024/01/17 12:08:38;;;;;;;8.80;8.60;;;4.80;1.00;;;;;;5039848;28;21623;-78
2024/01/17 12:11:09;;;;;;;9.33;8.87;;;4.90;1.00;;;;;;5048796;28;20824;-77
2024/01/17 12:13:38;;;;;;;9.60;9.30;;;4.90;1.00;;;;;;5038650;28;20471;-76
2024/01/17 12:16:07;;;;;;;10.10;9.60;;;4.90;1.00;;;;;;5037783;28;20472;-75
2024/01/17 12:18:37;;;;;;;9.93;9.47;;;4.90;1.00;;;;;;5041145;28;20972;-76
2024/01/17 12:21:06;;;;;;;9.73;9.43;;;4.90;1.00;;;;;;5048520;28;20456;-77
2024/01/17 12:23:36;;;;;;;9.70;9.40;;;4.90;1.00;;;;;;5052668;28;20458;-75
2024/01/17 12:26:05;;;;;;;10.07;9.67;;;5.00;1.00;;;;;;5049256;28;21026;-77
2024/01/17 12:28:34;;;;;;;9.60;9.20;;;5.00;1.00;;;;;;5034481;28;20468;-78
2024/01/17 12:31:06;;;;;;;10.07;9.77;;;5.00;1.00;;;;;;5032089;28;20498;-77
2024/01/17 12:33:36;;;;;;;10.10;9.73;;;5.10;4.30;;;;;;5046066;28;20485;-78
2024/01/17 12:36:06;;;;;;;10.03;9.73;;;5.10;1.00;;;;;;5058042;28;20494;-78
2024/01/17 12:38:36;;;;;;;11.33;10.83;;;5.10;4.00;;;;;;5055767;28;20915;-76
2024/01/17 12:41:06;;;;;;;10.93;10.47;;;5.10;14.50;;;;;;5051450;28;20494;-76
2024/01/17 12:43:36;;;;;;;11.13;10.80;;;5.20;3.90;;;;;;5053456;28;20634;-77
2024/01/17 12:46:06;;;;;;;12.37;11.77;;;5.30;14.50;;;;;;5052342;28;20486;-78
2024/01/17 12:48:36;;;;;;;11.83;11.17;;;5.40;15.00;;;;;;5049630;28;20519;-77
2024/01/17 12:51:06;;;;;;;11.47;11.10;;;5.50;33.50;;;;;;5055726;28;20463;-76
2024/01/17 12:53:39;;;;;;;12.07;11.67;;;5.60;44.30;;;;;;5055797;28;20483;-77
2024/01/17 12:56:11;;;;;;;12.43;11.93;;;5.60;42.10;;;;;;5055455;28;20490;-78
2024/01/17 12:58:41;;;;;;;12.03;11.37;;;5.70;32.80;;;;;;5050380;28;20562;-78